createdAt,value
2018-02-12T00:00:06.413Z,84.60
2018-02-12T00:01:06.192Z,84.60
2018-02-12T00:02:06.185Z,84.60
2018-02-12T00:03:05.498Z,84.60
2018-02-12T00:04:05.978Z,84.60
2018-02-12T00:05:06.450Z,84.60
2018-02-12T00:06:05.907Z,84.50
2018-02-12T00:07:06.519Z,84.40
2018-02-12T00:08:06.078Z,84.40
2018-02-12T00:09:11.084Z,84.30
2018-02-12T00:10:06.525Z,84.30
2018-02-12T00:11:06.269Z,84.30
2018-02-12T00:12:05.548Z,84.30
2018-02-12T00:13:05.737Z,84.30
2018-02-12T00:14:05.945Z,84.30
2018-02-12T00:15:05.901Z,84.20
2018-02-12T00:16:06.065Z,84.20
2018-02-12T00:17:11.021Z,84.20
2018-02-12T00:18:06.355Z,84.20
2018-02-12T00:19:09.188Z,84.10
2018-02-12T00:20:08.301Z,84.20
2018-02-12T00:21:05.982Z,84.20
2018-02-12T00:22:06.484Z,84.20
2018-02-12T00:23:10.566Z,84.20
2018-02-12T00:24:05.784Z,84.30
2018-02-12T00:25:06.400Z,84.30
2018-02-12T00:26:06.006Z,84.30
2018-02-12T00:27:06.368Z,84.20
2018-02-12T00:28:05.561Z,84.30
2018-02-12T00:29:09.298Z,84.30
2018-02-12T00:30:05.840Z,84.30
2018-02-12T00:31:05.566Z,84.30
2018-02-12T00:32:05.892Z,84.40
2018-02-12T00:33:08.393Z,84.40
2018-02-12T00:34:05.925Z,84.40
2018-02-12T00:35:06.537Z,84.40
2018-02-12T00:36:06.028Z,84.40
2018-02-12T00:37:08.308Z,84.40
2018-02-12T00:38:05.894Z,84.50
2018-02-12T00:39:11.283Z,84.40
2018-02-12T00:40:10.838Z,84.40
2018-02-12T00:41:09.347Z,84.40
2018-02-12T00:42:05.814Z,84.50
2018-02-12T00:43:08.265Z,84.40
2018-02-12T00:44:05.786Z,84.40
2018-02-12T00:45:08.981Z,84.30
2018-02-12T00:46:06.712Z,84.30
2018-02-12T00:47:06.153Z,84.30
2018-02-12T00:48:06.371Z,84.20
2018-02-12T00:49:06.081Z,84.30
2018-02-12T00:50:06.178Z,84.20
2018-02-12T00:51:05.814Z,84.20
2018-02-12T00:52:06.626Z,84.20
2018-02-12T00:53:06.434Z,84.20
2018-02-12T00:54:08.220Z,84.30
2018-02-12T00:55:05.690Z,84.20
2018-02-12T00:56:06.077Z,84.20
2018-02-12T00:57:10.875Z,84.20
2018-02-12T00:58:06.302Z,84.20
2018-02-12T00:59:08.430Z,84.30
2018-02-12T01:00:08.045Z,84.30
2018-02-12T01:01:06.417Z,84.30
2018-02-12T01:02:05.895Z,84.30
2018-02-12T01:03:06.329Z,84.30
2018-02-12T01:04:06.641Z,84.30
2018-02-12T01:05:11.522Z,84.30
2018-02-12T01:06:05.704Z,84.30
2018-02-12T01:07:06.282Z,84.30
2018-02-12T01:08:05.516Z,84.30
2018-02-12T01:09:05.769Z,84.30
2018-02-12T01:10:06.332Z,84.30
2018-02-12T01:11:05.936Z,84.30
2018-02-12T01:12:05.909Z,84.30
2018-02-12T01:13:06.106Z,84.30
2018-02-12T01:14:05.937Z,84.10
2018-02-12T01:15:09.723Z,84.10
2018-02-12T01:16:06.353Z,84.10
2018-02-12T01:17:05.687Z,84.10
2018-02-12T01:18:09.936Z,84.20
2018-02-12T01:19:05.721Z,84.20
2018-02-12T01:20:06.014Z,84.20
2018-02-12T01:21:05.708Z,84.30
2018-02-12T01:22:06.049Z,84.10
2018-02-12T01:23:10.667Z,84.20
2018-02-12T01:24:06.103Z,84.20
2018-02-12T01:25:06.437Z,84.20
2018-02-12T01:26:05.674Z,84.20
2018-02-12T01:27:06.226Z,84.30
2018-02-12T01:28:11.087Z,84.40
2018-02-12T01:29:09.257Z,84.50
2018-02-12T01:30:05.849Z,84.60
2018-02-12T01:31:06.626Z,84.70
2018-02-12T01:32:06.238Z,84.80
2018-02-12T01:33:06.306Z,84.90
2018-02-12T01:34:10.585Z,85.30
2018-02-12T01:35:05.628Z,85.10
2018-02-12T01:36:08.881Z,85.40
2018-02-12T01:37:06.420Z,85.40
2018-02-12T01:38:05.570Z,85.40
2018-02-12T01:39:05.932Z,85.30
2018-02-12T01:40:06.094Z,85.30
2018-02-12T01:41:05.735Z,85.30
2018-02-12T01:42:11.050Z,85.20
2018-02-12T01:43:09.352Z,85.30
2018-02-12T01:44:11.270Z,85.30
2018-02-12T01:45:08.953Z,85.30
2018-02-12T01:46:09.063Z,85.40
2018-02-12T01:47:05.694Z,85.30
2018-02-12T01:48:05.906Z,85.40
2018-02-12T01:49:05.559Z,85.30
2018-02-12T01:50:05.908Z,85.30
2018-02-12T01:51:06.826Z,85.30
2018-02-12T01:52:08.666Z,85.40
2018-02-12T01:53:06.122Z,85.40
2018-02-12T01:54:05.608Z,85.40
2018-02-12T01:55:06.206Z,85.30
2018-02-12T01:56:05.632Z,85.30
2018-02-12T01:57:05.865Z,85.20
2018-02-12T01:58:05.987Z,85.20
2018-02-12T01:59:06.579Z,85.20
2018-02-12T02:00:06.134Z,85.20
2018-02-12T02:01:06.175Z,85.30
2018-02-12T02:02:05.726Z,85.30
2018-02-12T02:03:10.632Z,85.20
2018-02-12T02:04:05.942Z,85.20
2018-02-12T02:05:10.685Z,85.20
2018-02-12T02:06:06.162Z,85.10
2018-02-12T02:07:10.794Z,85.10
2018-02-12T02:08:06.216Z,85.10
2018-02-12T02:09:08.777Z,85.30
2018-02-12T02:10:06.236Z,85.10
2018-02-12T02:11:08.332Z,85.20
2018-02-12T02:12:08.249Z,85.30
2018-02-12T02:13:05.488Z,85.10
2018-02-12T02:14:06.250Z,85.10
2018-02-12T02:15:06.724Z,85.20
2018-02-12T02:16:06.436Z,85.20
2018-02-12T02:17:08.620Z,85.40
2018-02-12T02:18:06.091Z,85.30
2018-02-12T02:19:06.055Z,85.40
2018-02-12T02:20:08.290Z,85.40
2018-02-12T02:21:06.006Z,85.40
2018-02-12T02:22:06.447Z,85.60
2018-02-12T02:23:10.959Z,85.60
2018-02-12T02:24:06.248Z,85.50
2018-02-12T02:25:05.589Z,85.60
2018-02-12T02:26:06.122Z,85.60
2018-02-12T02:27:08.560Z,85.60
2018-02-12T02:28:06.139Z,85.60
2018-02-12T02:29:09.758Z,85.60
2018-02-12T02:30:11.229Z,85.60
2018-02-12T02:31:13.307Z,85.50
2018-02-12T02:32:05.705Z,85.60
2018-02-12T02:33:05.733Z,85.50
2018-02-12T02:34:09.175Z,85.50
2018-02-12T02:35:05.819Z,85.50
2018-02-12T02:36:11.353Z,85.50
2018-02-12T02:37:10.848Z,85.40
2018-02-12T02:38:08.938Z,85.40
2018-02-12T02:39:06.434Z,85.30
2018-02-12T02:40:10.873Z,85.30
2018-02-12T02:41:11.419Z,85.30
2018-02-12T02:42:08.291Z,85.20
2018-02-12T02:43:05.731Z,85.30
2018-02-12T02:44:08.886Z,85.10
2018-02-12T02:45:06.600Z,85.10
2018-02-12T02:46:10.934Z,85.10
2018-02-12T02:47:06.204Z,85.10
2018-02-12T02:48:11.167Z,85.30
2018-02-12T02:49:10.621Z,85.10
2018-02-12T02:50:08.771Z,85.10
2018-02-12T02:51:06.334Z,85.20
2018-02-12T02:52:06.596Z,85.20
2018-02-12T02:53:05.834Z,85.20
2018-02-12T02:54:06.610Z,85.30
2018-02-12T02:55:06.082Z,85.30
2018-02-12T02:56:06.292Z,85.30
2018-02-12T02:57:05.595Z,85.30
2018-02-12T02:58:05.552Z,85.40
2018-02-12T02:59:09.713Z,85.40
2018-02-12T03:00:06.346Z,85.40
2018-02-12T03:01:05.735Z,85.40
2018-02-12T03:02:06.530Z,85.40
2018-02-12T03:03:08.779Z,85.40
2018-02-12T03:04:06.346Z,85.40
2018-02-12T03:05:09.535Z,85.40
2018-02-12T03:06:11.115Z,85.40
2018-02-12T03:07:05.462Z,85.40
2018-02-12T03:08:05.828Z,85.40
2018-02-12T03:09:06.448Z,85.40
2018-02-12T03:10:05.798Z,85.40
2018-02-12T03:11:10.603Z,85.40
2018-02-12T03:12:05.849Z,85.30
2018-02-12T03:13:11.190Z,85.30
2018-02-12T03:14:06.575Z,85.30
2018-02-12T03:15:05.849Z,85.30
2018-02-12T03:16:06.354Z,85.30
2018-02-12T03:17:05.792Z,85.30
2018-02-12T03:18:06.417Z,85.30
2018-02-12T03:19:06.123Z,85.30
2018-02-12T03:20:08.610Z,85.30
2018-02-12T03:21:06.025Z,85.20
2018-02-12T03:22:05.669Z,85.20
2018-02-12T03:23:06.025Z,85.20
2018-02-12T03:24:06.208Z,85.30
2018-02-12T03:25:06.397Z,85.30
2018-02-12T03:26:05.718Z,85.30
2018-02-12T03:27:09.353Z,85.30
2018-02-12T03:28:05.976Z,85.30
2018-02-12T03:29:08.026Z,85.30
2018-02-12T03:30:05.519Z,85.30
2018-02-12T03:31:06.255Z,85.40
2018-02-12T03:32:06.106Z,85.30
2018-02-12T03:33:08.405Z,85.30
2018-02-12T03:34:06.321Z,85.30
2018-02-12T03:35:06.302Z,85.30
2018-02-12T03:36:08.398Z,85.30
2018-02-12T03:37:05.744Z,85.20
2018-02-12T03:38:09.336Z,85.10
2018-02-12T03:39:05.771Z,85.10
2018-02-12T03:40:08.116Z,85.10
2018-02-12T03:41:08.752Z,85.10
2018-02-12T03:42:06.148Z,85.10
2018-02-12T03:43:05.827Z,85.20
2018-02-12T03:44:11.409Z,85.10
2018-02-12T03:45:08.380Z,85.20
2018-02-12T03:46:08.428Z,85.10
2018-02-12T03:47:05.971Z,85.10
2018-02-12T03:48:11.530Z,85.10
2018-02-12T03:49:06.186Z,85.10
2018-02-12T03:50:06.460Z,85.10
2018-02-12T03:51:05.982Z,85.10
2018-02-12T03:52:05.770Z,85.00
2018-02-12T03:53:06.162Z,85.00
2018-02-12T03:54:10.575Z,85.00
2018-02-12T03:55:05.932Z,84.90
2018-02-12T03:56:06.266Z,84.90
2018-02-12T03:57:05.773Z,84.90
2018-02-12T03:58:05.975Z,85.00
2018-02-12T03:59:05.891Z,85.00
2018-02-12T04:00:10.917Z,85.00
2018-02-12T04:01:11.333Z,85.00
2018-02-12T04:02:11.047Z,84.90
2018-02-12T04:03:06.104Z,84.90
2018-02-12T04:04:11.335Z,85.00
2018-02-12T04:05:08.322Z,85.00
2018-02-12T04:06:05.890Z,85.00
2018-02-12T04:07:05.705Z,85.00
2018-02-12T04:08:05.775Z,85.00
2018-02-12T04:09:08.388Z,85.00
2018-02-12T04:10:08.478Z,85.00
2018-02-12T04:11:06.230Z,85.00
2018-02-12T04:12:07.982Z,84.90
2018-02-12T04:13:09.932Z,84.80
2018-02-12T04:14:06.750Z,84.80
2018-02-12T04:15:06.042Z,84.80
2018-02-12T04:16:06.460Z,84.80
2018-02-12T04:17:06.098Z,84.90
2018-02-12T04:18:11.505Z,84.80
2018-02-12T04:19:08.547Z,84.80
2018-02-12T04:20:06.198Z,84.80
2018-02-12T04:21:10.789Z,84.80
2018-02-12T04:22:06.479Z,84.90
2018-02-12T04:23:06.514Z,84.80
2018-02-12T04:24:05.558Z,84.90
2018-02-12T04:25:05.642Z,84.80
2018-02-12T04:26:06.029Z,84.80
2018-02-12T04:27:05.793Z,84.80
2018-02-12T04:28:05.969Z,84.80
2018-02-12T04:29:05.779Z,84.80
2018-02-12T04:30:06.390Z,84.80
2018-02-12T04:31:09.239Z,84.60
2018-02-12T04:32:05.703Z,84.60
2018-02-12T04:33:06.170Z,84.60
2018-02-12T04:34:05.723Z,84.50
2018-02-12T04:35:08.783Z,84.50
2018-02-12T04:36:08.895Z,84.40
2018-02-12T04:37:06.406Z,84.40
2018-02-12T04:38:08.175Z,84.40
2018-02-12T04:39:10.747Z,84.40
2018-02-12T04:40:05.951Z,84.40
2018-02-12T04:41:05.611Z,84.40
2018-02-12T04:42:06.228Z,84.40
2018-02-12T04:43:08.049Z,84.40
2018-02-12T04:44:05.631Z,84.40
2018-02-12T04:45:08.807Z,84.40
2018-02-12T04:46:06.481Z,84.40
2018-02-12T04:47:06.178Z,84.40
2018-02-12T04:48:06.043Z,84.30
2018-02-12T04:49:08.855Z,84.20
2018-02-12T04:50:11.292Z,84.40
2018-02-12T04:51:05.859Z,84.40
2018-02-12T04:52:08.921Z,84.20
2018-02-12T04:53:09.000Z,84.30
2018-02-12T04:54:05.570Z,84.30
2018-02-12T04:55:05.795Z,84.40
2018-02-12T04:56:10.036Z,84.30
2018-02-12T04:57:08.033Z,84.30
2018-02-12T04:58:05.771Z,84.30
2018-02-12T04:59:08.794Z,84.30
2018-02-12T05:00:06.462Z,84.30
2018-02-12T05:01:05.813Z,84.20
2018-02-12T05:02:06.376Z,84.30
2018-02-12T05:03:05.923Z,84.30
2018-02-12T05:04:06.732Z,84.30
2018-02-12T05:05:05.889Z,84.30
2018-02-12T05:06:06.221Z,84.30
2018-02-12T05:07:06.205Z,84.40
2018-02-12T05:08:08.395Z,84.40
2018-02-12T05:09:10.995Z,84.40
2018-02-12T05:10:06.331Z,84.50
2018-02-12T05:11:05.850Z,84.50
2018-02-12T05:12:05.704Z,84.50
2018-02-12T05:13:06.007Z,84.50
2018-02-12T05:14:05.931Z,84.50
2018-02-12T05:15:06.203Z,84.60
2018-02-12T05:16:08.932Z,84.70
2018-02-12T05:17:11.548Z,84.70
2018-02-12T05:18:09.234Z,84.90
2018-02-12T05:19:05.871Z,84.80
2018-02-12T05:20:06.657Z,84.90
2018-02-12T05:21:11.231Z,84.90
2018-02-12T05:22:10.718Z,84.90
2018-02-12T05:23:05.893Z,84.90
2018-02-12T05:24:06.194Z,84.90
2018-02-12T05:25:09.478Z,84.90
2018-02-12T05:26:06.183Z,84.90
2018-02-12T05:27:09.243Z,85.00
2018-02-12T05:28:13.360Z,85.00
2018-02-12T05:29:10.805Z,85.00
2018-02-12T05:30:11.099Z,85.00
2018-02-12T05:31:09.167Z,84.90
2018-02-12T05:32:05.922Z,84.90
2018-02-12T05:33:11.293Z,85.00
2018-02-12T05:34:06.640Z,84.90
2018-02-12T05:35:09.348Z,85.00
2018-02-12T05:36:05.803Z,85.00
2018-02-12T05:37:06.339Z,85.00
2018-02-12T05:38:06.071Z,85.10
2018-02-12T05:39:06.023Z,85.10
2018-02-12T05:40:05.910Z,85.00
2018-02-12T05:41:10.564Z,85.10
2018-02-12T05:42:09.371Z,85.00
2018-02-12T05:43:10.968Z,85.10
2018-02-12T05:44:06.438Z,85.00
2018-02-12T05:45:10.654Z,85.00
2018-02-12T05:46:08.172Z,85.00
2018-02-12T05:47:09.521Z,85.10
2018-02-12T05:48:08.585Z,85.00
2018-02-12T05:49:08.732Z,85.00
2018-02-12T05:50:08.768Z,85.00
2018-02-12T05:51:08.805Z,85.00
2018-02-12T05:52:06.222Z,85.00
2018-02-12T05:53:11.586Z,85.00
2018-02-12T05:54:06.319Z,85.00
2018-02-12T05:55:06.069Z,85.00
2018-02-12T05:56:09.410Z,85.00
2018-02-12T05:57:08.347Z,84.90
2018-02-12T05:58:05.738Z,84.90
2018-02-12T05:59:06.880Z,84.90
2018-02-12T06:00:08.216Z,84.90
2018-02-12T06:01:05.806Z,85.00
2018-02-12T06:02:11.046Z,85.00
2018-02-12T06:03:06.992Z,85.00
2018-02-12T06:04:08.681Z,85.00
2018-02-12T06:05:11.586Z,85.00
2018-02-12T06:06:11.044Z,85.00
2018-02-12T06:07:06.287Z,85.00
2018-02-12T06:08:08.016Z,85.00
2018-02-12T06:09:05.834Z,85.00
2018-02-12T06:10:06.189Z,85.00
2018-02-12T06:11:05.784Z,85.00
2018-02-12T06:12:06.116Z,85.00
2018-02-12T06:13:13.579Z,85.00
2018-02-12T06:14:06.276Z,85.00
2018-02-12T06:15:06.058Z,85.10
2018-02-12T06:16:05.755Z,85.10
2018-02-12T06:17:05.837Z,85.10
2018-02-12T06:18:06.495Z,85.10
2018-02-12T06:19:13.603Z,85.10
2018-02-12T06:20:08.554Z,85.20
2018-02-12T06:21:07.199Z,85.20
2018-02-12T06:22:08.366Z,85.30
2018-02-12T06:23:06.356Z,85.30
2018-02-12T06:24:11.333Z,85.40
2018-02-12T06:25:09.391Z,85.50
2018-02-12T06:26:05.859Z,85.50
2018-02-12T06:27:09.098Z,85.60
2018-02-12T06:28:05.683Z,85.50
2018-02-12T06:29:06.561Z,85.70
2018-02-12T06:30:06.057Z,85.60
2018-02-12T06:31:08.583Z,86.00
2018-02-12T06:32:08.910Z,86.10
2018-02-12T06:33:06.519Z,86.10
2018-02-12T06:34:05.788Z,86.30
2018-02-12T06:35:06.331Z,86.40
2018-02-12T06:36:05.750Z,86.50
2018-02-12T06:37:06.120Z,86.50
2018-02-12T06:38:06.422Z,86.60
2018-02-12T06:39:05.866Z,86.70
2018-02-12T06:40:06.744Z,86.70
2018-02-12T06:41:09.189Z,86.60
2018-02-12T06:42:05.622Z,86.60
2018-02-12T06:43:05.756Z,86.60
2018-02-12T06:44:06.063Z,86.60
2018-02-12T06:45:10.702Z,86.60
2018-02-12T06:46:05.988Z,86.70
2018-02-12T06:47:06.196Z,86.70
2018-02-12T06:48:05.764Z,86.80
2018-02-12T06:49:05.927Z,86.80
2018-02-12T06:50:06.309Z,86.80
2018-02-12T06:51:08.437Z,86.80
2018-02-12T06:52:06.209Z,86.80
2018-02-12T06:53:05.659Z,86.90
2018-02-12T06:54:05.794Z,87.00
2018-02-12T06:55:05.797Z,87.00
2018-02-12T06:56:06.033Z,87.00
2018-02-12T06:57:06.027Z,87.00
2018-02-12T06:58:08.880Z,87.30
2018-02-12T06:59:06.272Z,87.20
2018-02-12T07:00:06.332Z,87.20
2018-02-12T07:01:10.094Z,87.10
2018-02-12T07:02:13.923Z,87.10
2018-02-12T07:03:13.911Z,87.00
2018-02-12T07:04:11.350Z,87.10
2018-02-12T07:05:06.021Z,87.10
2018-02-12T07:06:08.895Z,87.20
2018-02-12T07:07:08.864Z,87.10
2018-02-12T07:08:06.336Z,87.10
2018-02-12T07:09:10.707Z,87.20
2018-02-12T07:10:06.296Z,87.10
2018-02-12T07:11:05.919Z,87.10
2018-02-12T07:12:06.335Z,87.10
2018-02-12T07:13:05.500Z,87.10
2018-02-12T07:14:05.846Z,87.10
2018-02-12T07:15:06.078Z,87.10
2018-02-12T07:16:05.703Z,87.20
2018-02-12T07:17:08.834Z,87.10
2018-02-12T07:18:06.728Z,87.20
2018-02-12T07:19:12.042Z,87.10
2018-02-12T07:20:05.544Z,87.10
2018-02-12T07:21:09.040Z,87.10
2018-02-12T07:22:08.091Z,87.10
2018-02-12T07:23:05.866Z,87.10
2018-02-12T07:24:06.470Z,87.10
2018-02-12T07:25:06.437Z,87.10
2018-02-12T07:26:06.062Z,87.10
2018-02-12T07:27:05.507Z,87.10
2018-02-12T07:28:06.006Z,87.10
2018-02-12T07:29:05.539Z,87.10
2018-02-12T07:30:11.148Z,87.10
2018-02-12T07:31:05.684Z,87.10
2018-02-12T07:32:05.803Z,87.10
2018-02-12T07:33:05.706Z,87.20
2018-02-12T07:34:06.196Z,87.20
2018-02-12T07:35:11.028Z,87.20
2018-02-12T07:36:07.289Z,87.20
2018-02-12T07:37:05.988Z,87.30
2018-02-12T07:38:06.451Z,87.20
2018-02-12T07:39:10.976Z,87.40
2018-02-12T07:40:06.298Z,87.40
2018-02-12T07:41:05.790Z,87.50
2018-02-12T07:42:05.939Z,87.60
2018-02-12T07:43:06.063Z,87.70
2018-02-12T07:44:11.472Z,88.00
2018-02-12T07:45:05.868Z,88.00
2018-02-12T07:46:06.358Z,88.10
2018-02-12T07:47:05.597Z,88.10
2018-02-12T07:48:05.898Z,88.10
2018-02-12T07:49:10.532Z,88.20
2018-02-12T07:50:06.011Z,88.20
2018-02-12T07:51:05.716Z,88.20
2018-02-12T07:52:06.784Z,88.30
2018-02-12T07:53:06.326Z,88.30
2018-02-12T07:54:08.511Z,88.20
2018-02-12T07:55:06.334Z,88.20
2018-02-12T07:56:06.404Z,88.10
2018-02-12T07:57:08.143Z,87.70
2018-02-12T07:58:08.575Z,87.60
2018-02-12T07:59:08.634Z,87.60
2018-02-12T08:00:06.341Z,87.60
2018-02-12T08:01:05.950Z,87.60
2018-02-12T08:02:09.451Z,87.60
2018-02-12T08:03:06.061Z,87.60
2018-02-12T08:04:10.591Z,87.60
2018-02-12T08:05:11.106Z,87.60
2018-02-12T08:06:05.610Z,87.60
2018-02-12T08:07:08.511Z,87.60
2018-02-12T08:08:06.140Z,87.60
2018-02-12T08:09:05.766Z,87.90
2018-02-12T08:10:10.778Z,88.10
2018-02-12T08:11:06.198Z,87.90
2018-02-12T08:12:06.089Z,87.80
2018-02-12T08:13:06.373Z,87.70
2018-02-12T08:14:10.638Z,87.70
2018-02-12T08:15:06.281Z,87.70
2018-02-12T08:16:05.486Z,87.70
2018-02-12T08:17:06.069Z,87.70
2018-02-12T08:18:06.419Z,87.70
2018-02-12T08:19:11.229Z,87.70
2018-02-12T08:20:05.669Z,87.70
2018-02-12T08:21:06.361Z,87.70
2018-02-12T08:22:05.710Z,87.80
2018-02-12T08:23:06.308Z,87.70
2018-02-12T08:24:09.718Z,87.90
2018-02-12T08:25:11.211Z,87.80
2018-02-12T08:26:05.852Z,87.80
2018-02-12T08:27:05.590Z,87.80
2018-02-12T08:28:11.016Z,87.90
2018-02-12T08:29:05.844Z,87.90
2018-02-12T08:30:08.886Z,87.80
2018-02-12T08:31:06.912Z,87.80
2018-02-12T08:32:05.474Z,87.80
2018-02-12T08:33:08.507Z,87.80
2018-02-12T08:34:08.314Z,87.70
2018-02-12T08:35:05.769Z,87.70
2018-02-12T08:36:06.449Z,87.70
2018-02-12T08:37:08.836Z,88.00
2018-02-12T08:38:09.071Z,88.00
2018-02-12T08:39:10.881Z,88.00
2018-02-12T08:40:05.824Z,88.00
2018-02-12T08:41:06.596Z,87.90
2018-02-12T08:42:11.240Z,87.80
2018-02-12T08:43:05.868Z,87.70
2018-02-12T08:44:06.568Z,87.60
2018-02-12T08:45:05.672Z,87.50
2018-02-12T08:46:08.415Z,87.10
2018-02-12T08:47:05.998Z,87.10
2018-02-12T08:48:06.861Z,86.90
2018-02-12T08:49:10.741Z,86.90
2018-02-12T08:50:11.100Z,86.60
2018-02-12T08:51:05.563Z,83.40
2018-02-12T08:52:06.027Z,86.40
2018-02-12T08:53:06.462Z,86.40
2018-02-12T08:54:08.524Z,86.40
2018-02-12T08:55:05.998Z,86.40
2018-02-12T08:56:08.403Z,86.50
2018-02-12T08:57:05.926Z,86.50
2018-02-12T08:58:08.869Z,86.30
2018-02-12T08:59:06.351Z,86.30
2018-02-12T09:00:08.491Z,86.10
2018-02-12T09:01:08.323Z,86.00
2018-02-12T09:02:06.958Z,86.00
2018-02-12T09:03:06.739Z,85.90
2018-02-12T09:04:08.261Z,85.50
2018-02-12T09:05:06.996Z,85.50
2018-02-12T09:06:08.151Z,85.10
2018-02-12T09:07:08.430Z,85.20
2018-02-12T09:08:09.677Z,85.10
2018-02-12T09:09:15.795Z,85.10
2018-02-12T09:10:06.272Z,84.90
2018-02-12T09:11:05.916Z,84.90
2018-02-12T09:12:06.107Z,84.90
2018-02-12T09:13:05.646Z,84.70
2018-02-12T09:14:09.264Z,84.40
2018-02-12T09:15:10.971Z,84.10
2018-02-12T09:16:08.971Z,83.90
2018-02-12T09:17:10.657Z,83.80
2018-02-12T09:18:06.268Z,83.60
2018-02-12T09:19:08.118Z,83.00
2018-02-12T09:20:05.521Z,82.90
2018-02-12T09:21:08.691Z,81.50
2018-02-12T09:22:11.030Z,80.90
2018-02-12T09:23:06.447Z,80.90
2018-02-12T09:24:06.224Z,80.30
2018-02-12T09:25:06.119Z,79.30
2018-02-12T09:26:05.682Z,78.80
2018-02-12T09:27:06.228Z,78.40
2018-02-12T09:28:05.712Z,78.00
2018-02-12T09:29:06.390Z,78.00
2018-02-12T09:30:06.514Z,77.60
2018-02-12T09:31:08.584Z,77.80
2018-02-12T09:32:05.749Z,77.80
2018-02-12T09:33:11.402Z,78.10
2018-02-12T09:34:05.865Z,78.00
2018-02-12T09:35:06.461Z,78.00
2018-02-12T09:36:08.998Z,78.10
2018-02-12T09:37:10.679Z,78.20
2018-02-12T09:38:06.306Z,78.20
2018-02-12T09:39:05.677Z,78.40
2018-02-12T09:40:06.252Z,78.30
2018-02-12T09:41:08.849Z,77.80
2018-02-12T09:42:06.660Z,77.80
2018-02-12T09:43:06.317Z,78.00
2018-02-12T09:44:05.989Z,77.70
2018-02-12T09:45:06.246Z,77.90
2018-02-12T09:46:05.652Z,77.90
2018-02-12T09:47:06.089Z,78.00
2018-02-12T09:48:08.178Z,77.70
2018-02-12T09:49:08.198Z,77.40
2018-02-12T09:50:10.722Z,77.40
2018-02-12T09:51:06.306Z,77.30
2018-02-12T09:52:06.091Z,77.20
2018-02-12T09:53:05.664Z,77.00
2018-02-12T09:54:05.964Z,76.90
2018-02-12T09:55:07.394Z,77.20
2018-02-12T09:56:11.146Z,77.00
2018-02-12T09:57:05.416Z,76.90
2018-02-12T09:58:06.473Z,76.60
2018-02-12T09:59:06.561Z,76.60
2018-02-12T10:00:08.355Z,76.00
2018-02-12T10:01:05.804Z,75.90
2018-02-12T10:02:08.917Z,75.90
2018-02-12T10:03:11.244Z,76.30
2018-02-12T10:04:06.058Z,76.40
2018-02-12T10:05:05.438Z,76.50
2018-02-12T10:06:06.375Z,76.10
2018-02-12T10:07:10.745Z,75.70
2018-02-12T10:08:08.689Z,75.50
2018-02-12T10:09:06.664Z,75.60
2018-02-12T10:10:05.860Z,75.60
2018-02-12T10:11:06.597Z,75.60
2018-02-12T10:12:05.718Z,75.40
2018-02-12T10:13:08.942Z,75.10
2018-02-12T10:14:06.468Z,75.00
2018-02-12T10:15:06.210Z,75.00
2018-02-12T10:16:05.647Z,75.10
2018-02-12T10:17:11.431Z,75.10
2018-02-12T10:18:06.034Z,75.10
2018-02-12T10:19:06.396Z,75.10
2018-02-12T10:20:10.780Z,74.90
2018-02-12T10:21:06.683Z,75.10
2018-02-12T10:22:08.353Z,75.20
2018-02-12T10:23:08.393Z,75.50
2018-02-12T10:24:06.164Z,75.40
2018-02-12T10:25:05.644Z,75.50
2018-02-12T10:26:06.095Z,75.50
2018-02-12T10:27:06.737Z,75.20
2018-02-12T10:28:05.813Z,74.70
2018-02-12T10:29:06.276Z,74.20
2018-02-12T10:30:10.902Z,74.50
2018-02-12T10:31:11.568Z,74.40
2018-02-12T10:32:11.086Z,74.30
2018-02-12T10:33:05.519Z,73.80
2018-02-12T10:34:06.066Z,73.50
2018-02-12T10:35:11.504Z,73.70
2018-02-12T10:36:06.237Z,73.70
2018-02-12T10:37:05.677Z,73.90
2018-02-12T10:38:11.793Z,73.80
2018-02-12T10:39:06.444Z,73.80
2018-02-12T10:40:06.047Z,73.90
2018-02-12T10:41:05.839Z,73.30
2018-02-12T10:42:06.432Z,73.40
2018-02-12T10:43:15.298Z,73.60
2018-02-12T10:44:08.353Z,73.40
2018-02-12T10:45:05.574Z,73.40
2018-02-12T10:46:06.044Z,73.00
2018-02-12T10:47:06.406Z,72.70
2018-02-12T10:48:10.786Z,73.00
2018-02-12T10:49:08.098Z,73.30
2018-02-12T10:50:08.130Z,73.20
2018-02-12T10:51:05.790Z,73.20
2018-02-12T10:52:06.327Z,73.10
2018-02-12T10:53:05.966Z,73.00
2018-02-12T10:54:08.845Z,72.70
2018-02-12T10:55:09.217Z,72.50
2018-02-12T10:56:08.253Z,72.30
2018-02-12T10:57:05.732Z,72.30
2018-02-12T10:58:09.063Z,72.50
2018-02-12T10:59:05.694Z,72.50
2018-02-12T11:00:11.083Z,72.30
2018-02-12T11:01:05.708Z,72.30
2018-02-12T11:02:09.158Z,72.20
2018-02-12T11:03:13.261Z,72.00
2018-02-12T11:04:08.423Z,71.90
2018-02-12T11:05:05.958Z,72.00
2018-02-12T11:06:10.693Z,72.00
2018-02-12T11:07:08.524Z,71.90
2018-02-12T11:08:09.027Z,71.60
2018-02-12T11:09:05.586Z,71.50
2018-02-12T11:10:06.340Z,71.40
2018-02-12T11:11:05.603Z,71.10
2018-02-12T11:12:05.655Z,70.70
2018-02-12T11:13:08.505Z,70.70
2018-02-12T11:14:06.060Z,70.80
2018-02-12T11:15:05.774Z,70.80
2018-02-12T11:16:05.974Z,70.80
2018-02-12T11:17:08.765Z,70.60
2018-02-12T11:18:06.144Z,70.60
2018-02-12T11:19:08.787Z,70.20
2018-02-12T11:20:08.739Z,70.20
2018-02-12T11:21:16.352Z,69.70
2018-02-12T11:22:05.917Z,69.70
2018-02-12T11:23:06.280Z,69.80
2018-02-12T11:24:08.616Z,70.20
2018-02-12T11:25:06.240Z,70.20
2018-02-12T11:26:10.923Z,70.40
2018-02-12T11:27:11.162Z,70.80
2018-02-12T11:28:09.188Z,71.10
2018-02-12T11:29:10.768Z,71.40
2018-02-12T11:30:06.287Z,71.50
2018-02-12T11:31:08.768Z,72.10
2018-02-12T11:32:09.163Z,72.30
2018-02-12T11:33:05.809Z,72.30
2018-02-12T11:34:06.554Z,72.50
2018-02-12T11:35:08.769Z,73.00
2018-02-12T11:36:14.015Z,73.10
2018-02-12T11:37:05.595Z,73.10
2018-02-12T11:38:06.409Z,73.30
2018-02-12T11:39:05.804Z,73.50
2018-02-12T11:40:10.565Z,73.80
2018-02-12T11:41:06.277Z,73.80
2018-02-12T11:42:05.796Z,74.10
2018-02-12T11:43:10.795Z,74.20
2018-02-12T11:44:09.130Z,74.40
2018-02-12T11:45:05.819Z,74.40
2018-02-12T11:46:07.134Z,74.50
2018-02-12T11:47:08.574Z,74.90
2018-02-12T11:48:06.117Z,74.90
2018-02-12T11:49:11.359Z,74.90
2018-02-12T11:50:08.172Z,75.10
2018-02-12T11:51:05.584Z,75.10
2018-02-12T11:52:11.239Z,75.40
2018-02-12T11:53:05.570Z,75.50
2018-02-12T11:54:06.049Z,75.50
2018-02-12T11:55:06.204Z,75.50
2018-02-12T11:56:06.447Z,75.60
2018-02-12T11:57:05.943Z,75.70
2018-02-12T11:58:05.484Z,75.60
2018-02-12T11:59:09.930Z,75.30
2018-02-12T12:00:05.629Z,75.30
2018-02-12T12:01:06.435Z,75.20
2018-02-12T12:02:10.985Z,75.40
2018-02-12T12:03:11.496Z,75.40
2018-02-12T12:04:10.956Z,75.40
2018-02-12T12:05:06.255Z,75.30
2018-02-12T12:06:05.697Z,75.20
2018-02-12T12:07:11.222Z,75.00
2018-02-12T12:08:06.451Z,75.00
2018-02-12T12:09:06.034Z,74.50
2018-02-12T12:10:06.344Z,74.20
2018-02-12T12:11:05.899Z,74.20
2018-02-12T12:12:08.642Z,74.20
2018-02-12T12:13:06.023Z,74.20
2018-02-12T12:14:06.245Z,74.10
2018-02-12T12:15:10.029Z,74.00
2018-02-12T12:16:06.467Z,74.10
2018-02-12T12:17:12.045Z,73.30
2018-02-12T12:18:10.500Z,73.30
2018-02-12T12:19:08.454Z,73.00
2018-02-12T12:20:08.496Z,72.90
2018-02-12T12:21:06.028Z,72.80
2018-02-12T12:22:06.543Z,72.80
2018-02-12T12:23:05.810Z,72.80
2018-02-12T12:24:06.221Z,72.90
2018-02-12T12:25:08.997Z,73.10
2018-02-12T12:26:05.467Z,73.10
2018-02-12T12:27:08.986Z,73.40
2018-02-12T12:28:08.430Z,73.40
2018-02-12T12:29:08.830Z,73.30
2018-02-12T12:30:08.970Z,73.20
2018-02-12T12:31:06.037Z,73.10
2018-02-12T12:32:06.740Z,73.30
2018-02-12T12:33:13.921Z,73.70
2018-02-12T12:34:06.391Z,73.80
2018-02-12T12:35:11.067Z,74.20
2018-02-12T12:36:09.514Z,74.30
2018-02-12T12:37:08.558Z,74.40
2018-02-12T12:38:06.158Z,74.40
2018-02-12T12:39:05.629Z,74.10
2018-02-12T12:40:18.441Z,74.30
2018-02-12T12:41:08.274Z,74.20
2018-02-12T12:42:09.316Z,74.00
2018-02-12T12:43:11.952Z,74.00
2018-02-12T12:44:06.069Z,74.00
2018-02-12T12:45:05.657Z,74.00
2018-02-12T12:46:06.054Z,74.00
2018-02-12T12:47:05.662Z,73.90
2018-02-12T12:48:06.394Z,74.00
2018-02-12T12:49:06.020Z,73.80
2018-02-12T12:50:06.552Z,73.50
2018-02-12T12:51:06.178Z,73.60
2018-02-12T12:52:11.127Z,73.50